Time;durP1;ratioP1;P1;durP2;ratioP2;P2;SDS_P1;SDS_P2;PMS_P1;PMS_P2;Temp;Humidity;BMP_temperature;BMP_pressure;BME280_temperature;BME280_humidity;BME280_pressure;Samples;Min_cycle;Max_cycle;Signal;HPM_P1;HPM_P2
2021/11/23 00:01:08;;;;;;;18.03;10.30;;;0.90;1.00;;;;;;5034301;28;20472;-60
2021/11/23 00:03:35;;;;;;;17.23;9.80;;;0.90;1.00;;;;;;5034293;28;20460;-60
2021/11/23 00:06:01;;;;;;;15.70;10.07;;;0.90;1.00;;;;;;5033954;28;20473;-60
2021/11/23 00:08:28;;;;;;;14.37;9.60;;;0.90;1.00;;;;;;5033976;28;20456;-61
2021/11/23 00:10:56;;;;;;;16.63;10.90;;;0.90;1.00;;;;;;5034030;28;20885;-61
2021/11/23 00:13:23;;;;;;;17.37;10.23;;;0.90;1.00;;;;;;5034158;28;20461;-60
2021/11/23 00:15:49;;;;;;;15.80;10.80;;;0.80;1.00;;;;;;5033856;28;20476;-61
2021/11/23 00:18:16;;;;;;;16.70;10.70;;;0.90;1.00;;;;;;5034034;28;20456;-61
2021/11/23 00:20:45;;;;;;;20.27;10.57;;;0.90;1.00;;;;;;5034036;28;20457;-61
2021/11/23 00:23:13;;;;;;;16.13;9.43;;;0.90;1.00;;;;;;5033697;28;20488;-61
2021/11/23 00:25:42;;;;;;;16.23;11.13;;;0.80;1.00;;;;;;5033144;28;20587;-61
2021/11/23 00:28:10;;;;;;;15.07;10.13;;;0.80;1.00;;;;;;5033981;28;20453;-61
2021/11/23 00:30:38;;;;;;;17.50;10.83;;;0.90;1.00;;;;;;5033739;28;20449;-61
2021/11/23 00:33:05;;;;;;;16.33;10.70;;;0.80;1.00;;;;;;5033757;28;20449;-61
2021/11/23 00:35:31;;;;;;;15.10;10.47;;;0.80;1.00;;;;;;5033188;28;20479;-60
2021/11/23 00:37:59;;;;;;;14.83;10.80;;;0.70;1.00;;;;;;5033543;28;20444;-61
2021/11/23 00:40:26;;;;;;;16.13;10.93;;;0.70;1.00;;;;;;5033755;28;20491;-61
2021/11/23 00:42:53;;;;;;;21.33;11.43;;;0.80;1.00;;;;;;5033329;28;20484;-61
2021/11/23 00:45:21;;;;;;;18.03;11.73;;;0.80;1.00;;;;;;5033191;28;20476;-61
2021/11/23 00:47:47;;;;;;;18.07;11.67;;;0.80;1.00;;;;;;5033520;28;20450;-60
2021/11/23 00:50:15;;;;;;;18.57;11.53;;;0.80;1.00;;;;;;5033585;28;20449;-60
2021/11/23 00:52:42;;;;;;;18.40;11.77;;;0.70;1.00;;;;;;5033200;28;20441;-60
2021/11/23 00:55:10;;;;;;;16.20;10.80;;;0.70;1.00;;;;;;5032734;28;21000;-60
2021/11/23 00:57:37;;;;;;;18.03;11.23;;;0.70;1.00;;;;;;5033379;28;20507;-60
2021/11/23 01:00:06;;;;;;;15.93;11.67;;;0.70;1.00;;;;;;5033060;28;20449;-60
2021/11/23 01:02:35;;;;;;;19.57;10.80;;;0.70;1.00;;;;;;5033028;28;20838;-60
2021/11/23 01:05:01;;;;;;;19.00;12.07;;;0.70;1.00;;;;;;5032607;28;20479;-61
2021/11/23 01:07:28;;;;;;;18.60;12.53;;;0.60;1.00;;;;;;5032919;28;20456;-60
2021/11/23 01:09:55;;;;;;;22.27;13.87;;;0.60;1.00;;;;;;5033004;28;20474;-61
2021/11/23 01:12:22;;;;;;;24.73;15.23;;;0.70;1.00;;;;;;5033110;28;20445;-60
2021/11/23 01:14:49;;;;;;;24.80;15.60;;;0.70;1.00;;;;;;5032680;28;20479;-60
2021/11/23 01:17:16;;;;;;;22.43;16.13;;;0.80;1.00;;;;;;5032748;28;20491;-61
2021/11/23 01:19:44;;;;;;;26.73;16.63;;;0.90;1.00;;;;;;5032764;28;20456;-61
2021/11/23 01:22:12;;;;;;;26.43;15.97;;;0.90;1.00;;;;;;5032782;28;20491;-61
2021/11/23 01:24:38;;;;;;;30.57;16.03;;;1.00;1.00;;;;;;5032166;28;20482;-61
2021/11/23 01:27:06;;;;;;;22.37;16.37;;;1.20;1.00;;;;;;5032649;28;20801;-60
2021/11/23 01:29:33;;;;;;;22.77;15.77;;;1.30;1.00;;;;;;5032595;28;20456;-61
2021/11/23 01:31:59;;;;;;;22.20;15.70;;;1.30;1.00;;;;;;5032581;28;20449;-61
2021/11/23 01:34:26;;;;;;;20.43;14.67;;;1.30;1.00;;;;;;5032168;28;20476;-61
2021/11/23 01:36:54;;;;;;;21.73;15.73;;;1.20;1.00;;;;;;5032487;28;20460;-60
2021/11/23 01:39:22;;;;;;;25.50;14.30;;;1.20;1.00;;;;;;5032315;28;20460;-60
2021/11/23 01:41:49;;;;;;;22.20;15.90;;;1.20;1.00;;;;;;5032506;28;20573;-61
2021/11/23 01:44:15;;;;;;;21.60;15.00;;;1.10;1.00;;;;;;5032437;28;20465;-59
2021/11/23 01:46:42;;;;;;;19.67;14.20;;;1.10;1.00;;;;;;5032006;28;20451;-61
2021/11/23 01:49:09;;;;;;;20.00;13.60;;;1.00;1.00;;;;;;5031696;28;20455;-61
2021/11/23 01:51:36;;;;;;;26.03;15.40;;;1.00;1.00;;;;;;5032229;28;20451;-60
2021/11/23 01:54:04;;;;;;;28.10;15.70;;;1.00;1.00;;;;;;5032150;28;20457;-60
2021/11/23 01:56:31;;;;;;;24.03;15.47;;;0.90;1.00;;;;;;5031794;28;20472;-58
2021/11/23 01:58:58;;;;;;;27.87;16.40;;;0.80;1.00;;;;;;5032198;28;20498;-61
2021/11/23 02:01:25;;;;;;;26.23;15.83;;;0.80;1.00;;;;;;5031896;28;20457;-61
2021/11/23 02:03:52;;;;;;;21.33;14.37;;;0.80;1.00;;;;;;5032097;28;20452;-61
2021/11/23 02:06:19;;;;;;;23.70;15.50;;;0.90;1.00;;;;;;5031997;28;20487;-60
2021/11/23 02:08:46;;;;;;;24.07;14.80;;;0.80;1.00;;;;;;5032031;28;20960;-60
2021/11/23 02:11:14;;;;;;;27.60;15.10;;;0.80;1.00;;;;;;5032151;28;20439;-61
2021/11/23 02:13:41;;;;;;;21.87;13.50;;;0.70;1.00;;;;;;5032155;28;20448;-60
2021/11/23 02:16:08;;;;;;;20.33;13.27;;;0.70;1.00;;;;;;5031493;28;20491;-60
2021/11/23 02:18:36;;;;;;;19.87;12.97;;;0.70;1.00;;;;;;5031957;28;20494;-61
2021/11/23 02:21:05;;;;;;;21.50;13.70;;;0.70;1.00;;;;;;5031976;28;20585;-61
2021/11/23 02:23:32;;;;;;;21.83;13.73;;;0.70;1.00;;;;;;5031693;28;20482;-61
2021/11/23 02:25:58;;;;;;;22.90;15.23;;;0.60;1.00;;;;;;5031285;28;21004;-61
2021/11/23 02:28:25;;;;;;;25.57;15.40;;;0.60;1.00;;;;;;5031828;28;20453;-61
2021/11/23 02:30:55;;;;;;;25.87;15.47;;;0.50;1.00;;;;;;5031911;28;20452;-60
2021/11/23 02:33:23;;;;;;;25.63;15.17;;;0.60;7.80;;;;;;5031952;28;20454;-61
2021/11/23 02:35:52;;;;;;;29.27;15.40;;;0.60;19.80;;;;;;5031340;28;20839;-61
2021/11/23 02:38:21;;;;;;;27.27;15.97;;;0.70;39.50;;;;;;5031784;28;20453;-61
2021/11/23 02:40:48;;;;;;;32.73;17.93;;;0.70;72.50;;;;;;5031574;28;20509;-61
2021/11/23 02:43:16;;;;;;;30.27;17.57;;;0.80;99.90;;;;;;5031831;28;20501;-60
2021/11/23 02:45:43;;;;;;;33.57;19.27;;;0.90;99.90;;;;;;5031175;28;20526;-60
2021/11/23 02:48:12;;;;;;;33.23;19.47;;;1.00;99.90;;;;;;5031613;28;20922;-60
2021/11/23 02:50:42;;;;;;;33.73;19.20;;;1.00;99.90;;;;;;5031756;28;20447;-60
2021/11/23 02:53:09;;;;;;;35.33;21.57;;;1.00;99.90;;;;;;5031573;28;21144;-60
2021/11/23 02:55:37;;;;;;;40.03;20.90;;;1.20;99.90;;;;;;5030986;28;20468;-60
2021/11/23 02:58:05;;;;;;;40.50;21.33;;;1.20;99.90;;;;;;5032001;28;20535;-61
2021/11/23 03:00:33;;;;;;;39.03;22.17;;;1.30;99.90;;;;;;5033800;28;20484;-60
2021/11/23 03:03:00;;;;;;;37.43;20.87;;;1.30;99.90;;;;;;5035124;28;20489;-60
2021/11/23 03:05:28;;;;;;;39.03;20.73;;;1.30;99.90;;;;;;5034978;28;20471;-60
2021/11/23 03:07:56;;;;;;;41.53;22.07;;;1.40;99.90;;;;;;5035264;28;20882;-61
2021/11/23 03:10:24;;;;;;;39.90;21.37;;;1.50;99.90;;;;;;5035084;28;20459;-60
2021/11/23 03:12:55;;;;;;;34.90;21.83;;;1.50;99.90;;;;;;5035264;28;20854;-61
2021/11/23 03:15:22;;;;;;;39.07;21.33;;;1.60;99.90;;;;;;5034841;28;20534;-60
2021/11/23 03:17:50;;;;;;;36.17;20.17;;;1.70;99.90;;;;;;5035206;28;20456;-60
2021/11/23 03:20:19;;;;;;;36.83;20.87;;;1.70;99.90;;;;;;5035205;28;20449;-60
2021/11/23 03:22:46;;;;;;;33.80;19.23;;;1.80;99.90;;;;;;5034798;28;20484;-60
2021/11/23 03:25:13;;;;;;;34.63;19.77;;;1.80;99.90;;;;;;5034841;28;20484;-61
2021/11/23 03:27:39;;;;;;;35.40;19.47;;;1.90;99.90;;;;;;5034955;28;20457;-60
2021/11/23 03:30:09;;;;;;;26.43;16.93;;;1.90;99.90;;;;;;5035087;28;20453;-61
2021/11/23 03:32:36;;;;;;;26.03;17.17;;;2.00;99.90;;;;;;5034800;28;20815;-61
2021/11/23 03:35:04;;;;;;;30.00;18.37;;;2.00;99.90;;;;;;5034294;28;20469;-61
2021/11/23 03:37:31;;;;;;;26.53;17.30;;;2.10;99.90;;;;;;5034852;28;20475;-60
2021/11/23 03:39:58;;;;;;;29.00;17.70;;;2.10;99.90;;;;;;5034840;28;20455;-60
2021/11/23 03:42:25;;;;;;;28.03;17.00;;;2.20;62.10;;;;;;5034791;28;20492;-60
2021/11/23 03:44:57;;;;;;;29.60;18.27;;;2.20;29.80;;;;;;5034060;28;20985;-60
2021/11/23 03:47:27;;;;;;;29.20;16.83;;;2.30;1.00;;;;;;5034465;28;20949;-60
2021/11/23 03:49:54;;;;;;;25.63;15.80;;;2.30;1.00;;;;;;5034455;28;20516;-59
2021/11/23 03:52:20;;;;;;;25.37;15.97;;;2.30;1.00;;;;;;5034749;28;20935;-60
2021/11/23 03:54:47;;;;;;;24.17;15.83;;;2.40;1.00;;;;;;5034052;28;20473;-60
2021/11/23 03:57:14;;;;;;;26.40;16.47;;;2.30;1.00;;;;;;5034650;28;20449;-60
2021/11/23 03:59:45;;;;;;;26.30;16.43;;;2.40;1.00;;;;;;5034657;28;20586;-60
2021/11/23 04:02:12;;;;;;;29.60;18.67;;;2.40;1.00;;;;;;5034158;28;20481;-59
2021/11/23 04:04:40;;;;;;;26.23;16.07;;;2.40;1.00;;;;;;5034106;28;20473;-60
2021/11/23 04:07:07;;;;;;;31.23;16.90;;;2.40;1.00;;;;;;5034235;28;20484;-61
2021/11/23 04:09:34;;;;;;;26.07;16.30;;;2.40;1.00;;;;;;5034233;28;20453;-60
2021/11/23 04:12:01;;;;;;;25.90;16.90;;;2.50;1.00;;;;;;5034094;28;20456;-60
2021/11/23 04:14:27;;;;;;;25.27;16.03;;;2.50;1.00;;;;;;5034105;28;20461;-59
2021/11/23 04:16:54;;;;;;;26.70;16.43;;;2.50;1.00;;;;;;5033592;28;20456;-59
2021/11/23 04:19:21;;;;;;;28.13;16.60;;;2.60;1.00;;;;;;5034148;28;20445;-60
2021/11/23 04:21:49;;;;;;;27.53;16.87;;;2.60;1.00;;;;;;5034072;28;20453;-60
2021/11/23 04:24:15;;;;;;;26.30;16.70;;;2.60;1.00;;;;;;5033819;28;20491;-60
2021/11/23 04:26:42;;;;;;;26.47;16.53;;;2.70;1.00;;;;;;5033901;28;20449;-60
2021/11/23 04:29:09;;;;;;;25.47;15.73;;;2.70;1.00;;;;;;5033938;28;20456;-60
2021/11/23 04:31:35;;;;;;;25.80;16.87;;;2.70;1.00;;;;;;5033725;28;20684;-60
2021/11/23 04:34:02;;;;;;;24.10;16.13;;;2.70;1.00;;;;;;5033848;28;20446;-60
2021/11/23 04:36:29;;;;;;;27.87;15.30;;;2.70;1.00;;;;;;5033723;28;20848;-60
2021/11/23 04:38:57;;;;;;;24.87;15.40;;;2.70;1.00;;;;;;5033487;28;20475;-60
2021/11/23 04:41:23;;;;;;;25.30;16.33;;;2.70;1.00;;;;;;5033700;28;20643;-60
2021/11/23 04:43:51;;;;;;;25.90;16.00;;;2.70;1.00;;;;;;5034121;28;20481;-60
2021/11/23 04:46:18;;;;;;;25.57;16.10;;;2.80;1.00;;;;;;5033219;28;20551;-61
2021/11/23 04:48:45;;;;;;;27.50;17.07;;;2.80;1.00;;;;;;5033636;28;20456;-61
2021/11/23 04:51:11;;;;;;;30.00;16.70;;;2.80;1.00;;;;;;5033739;28;20441;-60
2021/11/23 04:53:38;;;;;;;24.77;15.43;;;2.90;1.00;;;;;;5033412;28;20475;-60
2021/11/23 04:56:06;;;;;;;27.97;16.60;;;2.90;1.00;;;;;;5032993;28;20475;-60
2021/11/23 04:58:33;;;;;;;22.97;15.67;;;2.80;1.00;;;;;;5033370;28;20445;-59
2021/11/23 05:01:00;;;;;;;30.50;17.97;;;2.80;1.00;;;;;;5033257;28;20461;-59
2021/11/23 05:03:27;;;;;;;25.73;15.57;;;2.80;1.00;;;;;;5032826;28;21024;-60
2021/11/23 05:05:53;;;;;;;27.37;17.30;;;2.80;1.00;;;;;;5032994;28;20492;-60
2021/11/23 05:08:20;;;;;;;28.40;16.30;;;2.80;1.00;;;;;;5033191;28;20453;-57
2021/11/23 05:10:46;;;;;;;25.43;16.37;;;2.90;1.00;;;;;;5033069;28;20457;-61
2021/11/23 05:13:15;;;;;;;23.57;15.67;;;2.90;1.00;;;;;;5033006;28;20445;-61
2021/11/23 05:15:41;;;;;;;23.50;16.27;;;2.90;1.00;;;;;;5032596;28;20469;-61
2021/11/23 05:18:08;;;;;;;27.27;17.40;;;2.90;1.00;;;;;;5032950;28;20856;-61
2021/11/23 05:20:35;;;;;;;24.83;16.63;;;2.90;1.00;;;;;;5032782;28;20896;-61
2021/11/23 05:23:01;;;;;;;28.20;17.40;;;2.80;1.00;;;;;;5032120;28;20481;-61
2021/11/23 05:25:28;;;;;;;27.80;15.60;;;2.80;1.00;;;;;;5032007;28;20481;-61
2021/11/23 05:27:55;;;;;;;26.90;16.60;;;2.80;1.00;;;;;;5032565;28;20829;-61
2021/11/23 05:30:23;;;;;;;23.27;15.80;;;2.80;1.00;;;;;;5032780;28;20823;-61
2021/11/23 05:32:52;;;;;;;25.87;16.37;;;2.80;1.00;;;;;;5013680;28;20822;-61
2021/11/23 05:35:19;;;;;;;25.97;15.73;;;2.90;1.00;;;;;;5011491;28;20481;-63
2021/11/23 05:37:45;;;;;;;29.07;16.77;;;2.90;1.00;;;;;;5009465;28;20450;-62
2021/11/23 05:40:13;;;;;;;28.67;17.83;;;2.90;1.00;;;;;;5020241;28;20461;-62
2021/11/23 05:42:40;;;;;;;31.10;17.87;;;2.90;1.00;;;;;;5032392;28;20209;-62
2021/11/23 05:45:08;;;;;;;28.03;17.73;;;3.00;1.00;;;;;;5032226;28;20230;-61
2021/11/23 05:47:37;;;;;;;34.07;17.90;;;2.90;1.00;;;;;;5032618;28;20463;-62
2021/11/23 05:50:06;;;;;;;28.50;16.90;;;2.90;1.00;;;;;;5032955;28;20485;-62
2021/11/23 05:52:32;;;;;;;32.00;18.30;;;2.90;1.00;;;;;;5025172;28;20459;-61
2021/11/23 05:54:59;;;;;;;29.80;18.13;;;2.80;1.00;;;;;;5012115;28;20477;-61
2021/11/23 05:57:26;;;;;;;34.10;18.90;;;2.80;1.00;;;;;;5012441;28;20453;-61
2021/11/23 05:59:52;;;;;;;29.67;17.73;;;2.90;1.00;;;;;;5012552;28;20450;-62
2021/11/23 06:02:19;;;;;;;31.70;18.17;;;2.90;1.00;;;;;;5013906;28;20450;-61
2021/11/23 06:04:47;;;;;;;30.20;17.53;;;2.90;1.00;;;;;;5012034;28;20496;-62
2021/11/23 06:07:14;;;;;;;30.50;17.80;;;2.90;1.00;;;;;;5012266;28;20450;-61
2021/11/23 06:09:41;;;;;;;30.30;17.77;;;2.90;1.00;;;;;;5012261;28;20453;-60
2021/11/23 06:12:08;;;;;;;28.63;17.70;;;2.90;1.00;;;;;;5011950;28;20465;-61
2021/11/23 06:14:36;;;;;;;32.27;18.47;;;2.90;1.00;;;;;;5011925;28;20516;-61
2021/11/23 06:17:05;;;;;;;30.83;17.77;;;2.90;1.00;;;;;;5011947;28;20449;-62
2021/11/23 06:19:31;;;;;;;27.37;17.43;;;2.90;1.00;;;;;;5012264;28;20453;-61
2021/11/23 06:21:59;;;;;;;31.70;17.53;;;2.90;1.00;;;;;;5011831;28;20826;-61
2021/11/23 06:24:26;;;;;;;30.60;17.77;;;2.90;1.00;;;;;;5011392;28;20513;-60
2021/11/23 06:26:52;;;;;;;32.60;18.40;;;2.90;1.00;;;;;;5011723;28;20853;-61
2021/11/23 06:29:19;;;;;;;32.73;17.43;;;2.90;1.00;;;;;;5011879;28;20456;-60
2021/11/23 06:31:46;;;;;;;29.70;16.97;;;3.00;1.00;;;;;;5012258;28;20452;-61
2021/11/23 06:34:12;;;;;;;29.90;17.80;;;3.00;1.00;;;;;;5012991;28;20439;-61
2021/11/23 06:36:39;;;;;;;27.87;16.80;;;3.00;1.00;;;;;;5015693;28;20461;-61
2021/11/23 06:39:07;;;;;;;28.60;18.43;;;3.00;1.00;;;;;;5011490;28;21212;-62
2021/11/23 06:41:34;;;;;;;31.57;17.93;;;3.00;1.00;;;;;;5014226;28;20450;-62
2021/11/23 06:44:02;;;;;;;31.70;17.97;;;3.00;1.00;;;;;;5014064;28;20489;-60
2021/11/23 06:46:30;;;;;;;32.50;18.80;;;3.00;1.00;;;;;;5013981;28;20985;-60
2021/11/23 06:48:57;;;;;;;29.23;16.90;;;2.90;1.00;;;;;;5014334;28;20445;-61
2021/11/23 06:51:24;;;;;;;35.27;20.07;;;2.90;9.00;;;;;;5014319;28;20452;-59
2021/11/23 06:53:51;;;;;;;33.77;19.53;;;2.90;46.40;;;;;;5013945;28;20449;-62
2021/11/23 06:56:19;;;;;;;32.73;19.43;;;2.90;99.50;;;;;;5013303;28;20472;-62
2021/11/23 06:58:45;;;;;;;37.20;19.43;;;2.90;99.90;;;;;;5014217;28;20445;-61
2021/11/23 07:01:12;;;;;;;38.77;20.67;;;2.90;99.90;;;;;;5013666;28;20203;-59
2021/11/23 07:03:39;;;;;;;34.57;20.43;;;2.80;99.90;;;;;;5013261;28;21015;-60
2021/11/23 07:06:06;;;;;;;37.67;21.27;;;2.90;99.90;;;;;;5013460;28;20466;-62
2021/11/23 07:08:33;;;;;;;37.60;21.67;;;2.90;99.90;;;;;;5013851;28;20461;-64
2021/11/23 07:10:59;;;;;;;40.73;23.50;;;2.80;99.90;;;;;;5014376;28;20457;-63
2021/11/23 07:13:27;;;;;;;39.23;22.73;;;2.80;99.90;;;;;;5013772;28;20454;-62
2021/11/23 07:15:54;;;;;;;44.50;24.43;;;2.80;99.90;;;;;;5013392;28;20473;-60
2021/11/23 07:18:21;;;;;;;39.67;23.13;;;2.80;99.90;;;;;;5013973;28;20457;-63
2021/11/23 07:20:48;;;;;;;45.77;24.40;;;2.70;99.90;;;;;;5013968;28;20457;-61
2021/11/23 07:23:15;;;;;;;48.50;23.83;;;2.70;99.90;;;;;;5013439;28;20458;-61
2021/11/23 07:25:42;;;;;;;42.00;24.77;;;2.70;99.90;;;;;;5013976;28;20596;-63
2021/11/23 07:28:09;;;;;;;42.83;23.80;;;2.80;99.90;;;;;;5013759;28;20939;-61
2021/11/23 07:30:37;;;;;;;46.33;24.97;;;2.80;99.90;;;;;;5013652;28;20454;-63
2021/11/23 07:33:04;;;;;;;42.87;24.90;;;2.80;99.90;;;;;;5013775;28;20537;-63
2021/11/23 07:35:31;;;;;;;44.53;24.20;;;2.70;99.90;;;;;;5013113;28;20469;-63
2021/11/23 07:37:58;;;;;;;46.47;26.50;;;2.70;99.90;;;;;;5013736;28;20450;-63
2021/11/23 07:40:25;;;;;;;51.73;26.30;;;2.70;99.90;;;;;;5013233;28;20458;-63
2021/11/23 07:42:51;;;;;;;53.27;25.53;;;2.70;99.90;;;;;;5013230;28;20450;-61
2021/11/23 07:45:18;;;;;;;45.17;25.80;;;2.70;99.90;;;;;;5012709;28;20496;-62
2021/11/23 07:47:46;;;;;;;46.37;26.80;;;2.80;99.90;;;;;;5012776;28;20450;-62
2021/11/23 07:50:14;;;;;;;49.97;26.77;;;2.80;99.90;;;;;;5013422;28;20962;-62
2021/11/23 07:52:40;;;;;;;47.50;25.90;;;2.80;99.90;;;;;;5013288;28;20457;-62
2021/11/23 07:55:08;;;;;;;57.40;29.07;;;2.80;99.90;;;;;;5012949;28;20501;-61
2021/11/23 07:57:35;;;;;;;53.17;28.07;;;2.70;99.90;;;;;;5013832;28;20465;-62
2021/11/23 08:00:02;;;;;;;57.10;28.53;;;2.70;99.90;;;;;;5013691;28;20452;-60
2021/11/23 08:02:29;;;;;;;54.97;28.60;;;2.70;99.90;;;;;;5013539;28;20581;-60
2021/11/23 08:04:57;;;;;;;67.63;31.47;;;2.80;99.90;;;;;;5012434;28;20933;-57
2021/11/23 08:07:28;;;;;;;57.40;28.90;;;2.70;99.90;;;;;;5013252;28;20569;-61
2021/11/23 08:09:54;;;;;;;65.63;33.43;;;2.80;99.90;;;;;;4993085;28;20454;-60
2021/11/23 08:12:21;;;;;;;58.30;30.53;;;2.80;1.00;;;;;;4993459;28;20948;-60
2021/11/23 08:14:48;;;;;;;61.83;31.10;;;2.80;1.00;;;;;;4993227;28;20458;-62
2021/11/23 08:17:15;;;;;;;65.70;30.40;;;2.80;1.00;;;;;;4993143;28;20462;-62
2021/11/23 08:19:41;;;;;;;61.47;30.60;;;2.90;1.00;;;;;;4993056;28;20451;-62
2021/11/23 08:22:09;;;;;;;63.47;31.93;;;2.90;1.00;;;;;;5007591;28;20457;-60
2021/11/23 08:24:36;;;;;;;60.13;30.67;;;3.00;1.00;;;;;;5012684;28;20497;-59
2021/11/23 08:27:03;;;;;;;60.60;31.67;;;3.00;1.00;;;;;;5012274;28;20552;-61
2021/11/23 08:29:29;;;;;;;71.23;34.57;;;3.10;1.00;;;;;;5011904;28;20434;-65
2021/11/23 08:31:56;;;;;;;62.17;32.30;;;3.20;1.00;;;;;;5012454;28;20445;-62
2021/11/23 08:34:23;;;;;;;73.37;34.73;;;3.20;1.00;;;;;;5012264;28;20998;-62
2021/11/23 08:36:50;;;;;;;65.83;33.27;;;3.20;1.00;;;;;;5012025;28;20454;-63
2021/11/23 08:39:19;;;;;;;65.67;32.27;;;3.10;1.00;;;;;;5011881;28;20454;-63
2021/11/23 08:41:46;;;;;;;66.07;33.60;;;3.20;1.00;;;;;;5011752;28;20458;-63
2021/11/23 08:44:13;;;;;;;75.73;35.33;;;3.20;1.00;;;;;;5012709;28;20461;-64
2021/11/23 08:46:40;;;;;;;77.17;36.20;;;3.20;1.00;;;;;;5011862;28;20450;-62
2021/11/23 08:49:07;;;;;;;66.87;35.33;;;3.30;1.00;;;;;;5012373;28;20458;-60
2021/11/23 08:51:36;;;;;;;75.13;35.00;;;3.40;1.00;;;;;;5011921;28;20449;-60
2021/11/23 08:54:03;;;;;;;73.67;35.80;;;3.40;1.00;;;;;;5012365;28;20430;-60
2021/11/23 08:56:35;;;;;;;73.03;35.37;;;3.40;1.00;;;;;;5011650;28;20969;-60
2021/11/23 08:59:04;;;;;;;79.23;37.07;;;3.40;1.00;;;;;;5010630;28;20532;-60
2021/11/23 09:01:31;;;;;;;78.70;37.57;;;3.60;1.00;;;;;;5011588;28;20454;-60
2021/11/23 09:03:58;;;;;;;73.97;35.13;;;3.70;1.00;;;;;;5011332;28;20231;-60
2021/11/23 09:06:26;;;;;;;82.03;36.13;;;3.70;1.00;;;;;;5011228;28;20212;-60
2021/11/23 09:08:55;;;;;;;79.53;36.73;;;3.70;1.00;;;;;;5011516;28;20261;-60
2021/11/23 09:11:23;;;;;;;77.50;36.70;;;3.70;1.00;;;;;;5011347;28;20203;-60
2021/11/23 09:13:53;;;;;;;76.47;36.83;;;3.80;1.00;;;;;;5012340;28;20712;-57
2021/11/23 09:16:21;;;;;;;79.10;36.60;;;3.80;1.00;;;;;;5011729;28;20207;-55
2021/11/23 09:18:48;;;;;;;74.07;36.77;;;3.90;1.00;;;;;;5011210;28;20208;-60
2021/11/23 09:21:15;;;;;;;74.60;34.03;;;4.00;1.00;;;;;;5011743;28;20239;-56
2021/11/23 09:23:42;;;;;;;69.77;32.63;;;4.00;1.00;;;;;;5011452;28;20211;-55
2021/11/23 09:26:10;;;;;;;69.87;33.07;;;4.10;1.00;;;;;;5011158;28;20312;-60
2021/11/23 09:28:37;;;;;;;65.10;33.03;;;4.20;1.00;;;;;;5011483;28;20204;-62
2021/11/23 09:31:06;;;;;;;66.63;31.67;;;4.20;1.00;;;;;;5010230;28;20222;-62
2021/11/23 09:33:33;;;;;;;62.23;30.70;;;4.20;1.00;;;;;;5011096;28;20214;-60
2021/11/23 09:35:59;;;;;;;60.73;31.07;;;4.30;1.00;;;;;;5011532;28;20274;-62
2021/11/23 09:38:26;;;;;;;61.47;30.40;;;4.30;1.00;;;;;;5011647;28;20232;-64
2021/11/23 09:40:53;;;;;;;54.37;28.53;;;4.40;1.00;;;;;;5010759;28;20217;-64
2021/11/23 09:43:20;;;;;;;55.33;27.53;;;4.40;1.00;;;;;;5010480;28;20241;-58
2021/11/23 09:45:47;;;;;;;49.77;26.07;;;4.50;1.00;;;;;;5010809;28;20234;-63
2021/11/23 09:48:17;;;;;;;46.57;24.63;;;4.40;1.00;;;;;;5011193;28;20278;-63
2021/11/23 09:50:44;;;;;;;41.17;22.87;;;4.40;1.00;;;;;;5010886;28;20670;-62
2021/11/23 09:53:11;;;;;;;43.40;23.63;;;4.30;99.90;;;;;;5011505;28;20210;-62
2021/11/23 09:55:39;;;;;;;47.70;25.63;;;4.20;99.90;;;;;;5010631;28;20227;-60
2021/11/23 09:58:09;;;;;;;47.50;25.50;;;4.30;99.90;;;;;;5011469;28;20670;-62
2021/11/23 10:00:37;;;;;;;48.63;25.97;;;4.30;99.90;;;;;;5010763;28;20214;-63
2021/11/23 10:03:17;;;;;;;47.47;25.43;;;4.30;99.90;;;;;;5011476;28;20212;-64
2021/11/23 10:05:45;;;;;;;43.93;23.27;;;4.30;99.90;;;;;;5011355;28;20292;-57
2021/11/23 10:08:14;;;;;;;46.80;25.00;;;4.30;99.90;;;;;;5011179;28;20213;-59
2021/11/23 10:10:47;;;;;;;49.13;26.33;;;4.20;99.90;;;;;;5010657;28;20379;-60
2021/11/23 10:13:15;;;;;;;44.73;24.37;;;4.30;1.00;;;;;;5010748;28;20203;-58
2021/11/23 10:15:45;;;;;;;42.40;22.27;;;4.30;1.00;;;;;;5010826;28;20224;-60
2021/11/23 10:18:14;;;;;;;42.73;23.37;;;4.30;1.00;;;;;;5011547;28;20215;-57
2021/11/23 10:20:46;;;;;;;47.00;23.77;;;4.30;1.00;;;;;;5011049;28;20679;-58
2021/11/23 10:23:23;;;;;;;45.57;23.43;;;4.40;1.00;;;;;;5011259;28;20187;-62
2021/11/23 10:25:52;;;;;;;40.73;22.23;;;4.30;1.00;;;;;;5010490;28;20231;-62
2021/11/23 10:28:21;;;;;;;44.93;23.80;;;4.30;1.00;;;;;;5011201;28;20218;-62
2021/11/23 10:30:49;;;;;;;40.53;21.53;;;4.30;1.00;;;;;;5010471;28;20249;-62
2021/11/23 10:33:17;;;;;;;44.13;22.10;;;4.30;1.00;;;;;;5010718;28;20655;-61
2021/11/23 10:35:50;;;;;;;42.03;22.17;;;4.40;1.00;;;;;;5010376;28;20264;-63
2021/11/23 10:38:17;;;;;;;37.83;20.13;;;4.50;1.00;;;;;;5011105;28;20687;-61
2021/11/23 10:40:46;;;;;;;48.13;22.17;;;4.60;1.00;;;;;;5010870;28;20209;-61
2021/11/23 10:43:16;;;;;;;38.40;21.53;;;4.70;1.00;;;;;;5010923;28;20214;-61
2021/11/23 10:45:45;;;;;;;42.67;22.20;;;4.80;1.00;;;;;;5010350;28;20228;-62
2021/11/23 10:48:13;;;;;;;38.07;21.93;;;4.80;1.00;;;;;;5010934;28;20215;-56
2021/11/23 10:50:43;;;;;;;41.00;20.50;;;4.90;1.00;;;;;;5009649;28;20217;-60
2021/11/23 10:53:13;;;;;;;38.73;20.87;;;4.90;1.00;;;;;;5025441;28;20217;-62
2021/11/23 10:55:42;;;;;;;34.80;20.67;;;4.90;1.00;;;;;;5030654;28;20224;-61
2021/11/23 10:58:11;;;;;;;35.50;19.97;;;5.00;1.00;;;;;;5030921;28;20217;-61
2021/11/23 11:00:41;;;;;;;35.73;19.43;;;4.90;1.00;;;;;;5030176;28;20215;-62
2021/11/23 11:03:10;;;;;;;38.53;20.93;;;4.80;1.00;;;;;;5030238;28;20208;-63
2021/11/23 11:05:39;;;;;;;36.20;19.27;;;4.80;1.00;;;;;;5030148;28;20320;-59
2021/11/23 11:08:07;;;;;;;34.63;19.63;;;4.90;1.00;;;;;;5030385;28;20214;-64
2021/11/23 11:10:36;;;;;;;32.63;19.10;;;5.00;1.00;;;;;;5031118;28;20213;-64
2021/11/23 11:13:06;;;;;;;36.27;18.57;;;5.00;1.00;;;;;;5030704;28;20206;-63
2021/11/23 11:15:36;;;;;;;34.03;18.73;;;5.00;1.00;;;;;;5030048;28;20233;-63
2021/11/23 11:18:08;;;;;;;39.00;21.07;;;5.00;1.00;;;;;;5030676;28;20217;-61
2021/11/23 11:20:39;;;;;;;34.70;19.97;;;5.00;1.00;;;;;;5031344;28;20235;-59
2021/11/23 11:23:09;;;;;;;37.13;19.67;;;5.10;1.00;;;;;;5035177;28;20260;-60
2021/11/23 11:26:10;;;;;;;38.30;20.80;;;5.10;99.90;;;;;;5035402;28;20255;-61
2021/11/23 11:28:45;;;;;;;39.53;20.33;;;5.10;99.90;;;;;;5035268;28;20299;-63
2021/11/23 11:31:39;;;;;;;43.43;22.00;;;5.00;99.90;;;;;;5034511;28;20213;-62
2021/11/23 11:34:33;;;;;;;36.30;19.00;;;5.10;1.00;;;;;;5034574;28;20240;-63
2021/11/23 11:37:04;;;;;;;39.17;19.87;;;5.10;1.00;;;;;;5034510;28;20216;-62
2021/11/23 11:40:03;;;;;;;40.17;20.10;;;5.20;1.00;;;;;;5034031;28;20259;-59
2021/11/23 11:42:52;;;;;;;39.23;20.23;;;5.20;1.00;;;;;;5034424;28;20221;-62
2021/11/23 11:45:22;;;;;;;43.87;22.40;;;5.20;1.00;;;;;;5034213;28;20230;-63
2021/11/23 11:47:51;;;;;;;47.77;21.73;;;5.20;1.00;;;;;;5034220;28;20210;-62
2021/11/23 11:50:29;;;;;;;45.47;21.87;;;5.20;1.00;;;;;;5034212;28;20206;-62
2021/11/23 11:53:09;;;;;;;43.83;21.27;;;5.30;1.00;;;;;;5035323;28;20210;-67
2021/11/23 11:55:47;;;;;;;43.17;21.03;;;5.40;99.90;;;;;;5034010;28;20309;-67
2021/11/23 11:58:44;;;;;;;41.60;21.10;;;5.30;99.90;;;;;;5034244;28;20225;-64
2021/11/23 12:01:23;;;;;;;48.20;22.67;;;5.30;99.90;;;;;;5033910;28;20237;-64
2021/11/23 12:04:10;;;;;;;42.93;21.83;;;5.30;99.90;;;;;;5014131;28;20224;-63
2021/11/23 12:07:06;;;;;;;44.90;23.27;;;5.30;99.90;;;;;;5013950;28;20227;-60
2021/11/23 12:09:35;;;;;;;47.10;20.90;;;5.40;99.90;;;;;;5013636;28;20241;-62
2021/11/23 12:12:26;;;;;;;52.50;24.60;;;5.40;99.90;;;;;;5013553;28;20211;-60
2021/11/23 12:15:08;;;;;;;50.73;24.60;;;5.50;99.90;;;;;;5013393;28;20227;-62
2021/11/23 12:17:45;;;;;;;55.03;25.43;;;5.60;99.90;;;;;;5013736;28;20205;-61
2021/11/23 12:20:21;;;;;;;49.47;25.13;;;5.70;99.90;;;;;;5013402;28;20726;-61
2021/11/23 12:22:50;;;;;;;56.83;25.13;;;5.80;99.90;;;;;;5013877;28;20207;-61
2021/11/23 12:25:20;;;;;;;47.00;22.63;;;5.80;99.90;;;;;;5013011;28;20692;-61
2021/11/23 12:27:48;;;;;;;48.47;22.53;;;5.80;99.90;;;;;;5013533;28;20218;-62
2021/11/23 12:30:20;;;;;;;59.90;25.97;;;5.80;99.90;;;;;;5013577;28;20306;-57
2021/11/23 12:32:49;;;;;;;56.53;25.43;;;5.80;99.90;;;;;;5013838;28;20211;-59
2021/11/23 12:35:18;;;;;;;58.97;25.93;;;5.70;99.90;;;;;;5012937;28;20230;-57
2021/11/23 12:37:47;;;;;;;63.23;25.17;;;5.80;99.90;;;;;;5012780;28;20283;-56
2021/11/23 12:40:17;;;;;;;61.47;24.93;;;5.80;99.90;;;;;;5012892;28;20234;-59
2021/11/23 12:42:52;;;;;;;58.87;25.43;;;5.90;99.90;;;;;;5012659;28;20241;-58
2021/11/23 12:45:22;;;;;;;56.00;24.23;;;5.90;99.90;;;;;;5012540;28;20245;-60
2021/11/23 12:47:50;;;;;;;59.93;24.90;;;5.90;99.90;;;;;;5012994;28;20245;-61
2021/11/23 12:50:17;;;;;;;59.27;25.10;;;5.80;99.90;;;;;;5012856;28;20210;-60